Time;durP1;ratioP1;P1;durP2;ratioP2;P2;SDS_P1;SDS_P2;PMS_P1;PMS_P2;Temp;Humidity;BMP_temperature;BMP_pressure;BME280_temperature;BME280_humidity;BME280_pressure;Samples;Min_cycle;Max_cycle;Signal;HPM_P1;HPM_P2
2021/01/23 00:02:18;;;;;;;23.42;13.30;;;;;;;;;;4969222;28;20051;-75
2021/01/23 00:04:44;;;;;;;21.25;13.52;;;;;;;;;;4980778;28;20023;-76
2021/01/23 00:07:10;;;;;;;24.90;14.38;;;;;;;;;;4975570;28;20038;-76
2021/01/23 00:09:36;;;;;;;22.80;15.02;;;;;;;;;;4980912;28;20121;-77
2021/01/23 00:12:03;;;;;;;29.85;14.05;;;;;;;;;;4964835;28;20575;-77
2021/01/23 00:14:29;;;;;;;26.48;13.65;;;;;;;;;;4973140;28;20030;-76
2021/01/23 00:16:55;;;;;;;24.50;13.23;;;;;;;;;;4971659;28;20030;-78
2021/01/23 00:19:21;;;;;;;19.70;12.65;;;;;;;;;;4973907;28;20424;-77
2021/01/23 00:21:47;;;;;;;20.92;11.30;;;;;;;;;;4970107;28;20065;-77
2021/01/23 00:24:14;;;;;;;24.20;13.48;;;;;;;;;;4973121;28;20019;-76
2021/01/23 00:26:42;;;;;;;18.48;13.27;;;;;;;;;;4972034;28;20038;-77
2021/01/23 00:29:08;;;;;;;20.02;11.57;;;;;;;;;;4973086;28;20027;-77
2021/01/23 00:31:34;;;;;;;20.92;11.40;;;;;;;;;;4969047;28;20478;-77
2021/01/23 00:34:00;;;;;;;22.73;10.32;;;;;;;;;;4968537;28;20058;-77
2021/01/23 00:36:26;;;;;;;18.80;9.93;;;;;;;;;;4971051;28;20054;-76
2021/01/23 00:38:54;;;;;;;13.60;9.07;;;;;;;;;;4971978;28;20030;-77
2021/01/23 00:41:20;;;;;;;15.95;6.82;;;;;;;;;;4968030;28;20618;-77
2021/01/23 00:43:46;;;;;;;13.32;7.72;;;;;;;;;;4973018;28;20465;-76
2021/01/23 00:46:12;;;;;;;14.75;6.70;;;;;;;;;;4972450;28;20023;-77
2021/01/23 00:48:38;;;;;;;11.75;6.07;;;;;;;;;;4972717;28;20400;-77
2021/01/23 00:51:04;;;;;;;13.48;7.18;;;;;;;;;;4971062;28;20366;-76
2021/01/23 00:53:31;;;;;;;13.68;6.95;;;;;;;;;;4972895;28;20054;-76
2021/01/23 00:55:57;;;;;;;13.63;7.53;;;;;;;;;;4971142;28;20033;-75
2021/01/23 00:58:23;;;;;;;12.65;7.35;;;;;;;;;;4973512;28;20019;-77
2021/01/23 01:00:49;;;;;;;8.75;4.50;;;;;;;;;;4968847;28;20392;-76
2021/01/23 01:03:15;;;;;;;9.73;4.07;;;;;;;;;;4972145;28;20118;-76
2021/01/23 01:05:41;;;;;;;9.05;4.05;;;;;;;;;;4972375;28;20067;-76
2021/01/23 01:08:07;;;;;;;10.43;5.22;;;;;;;;;;4970925;28;20048;-76
2021/01/23 01:10:33;;;;;;;12.73;5.07;;;;;;;;;;4961810;28;20022;-76
2021/01/23 01:12:59;;;;;;;8.93;4.88;;;;;;;;;;4969772;28;20038;-76
2021/01/23 01:15:25;;;;;;;7.97;4.72;;;;;;;;;;4970281;28;20034;-77
2021/01/23 01:17:51;;;;;;;11.70;4.55;;;;;;;;;;4972825;28;20033;-75
2021/01/23 01:20:17;;;;;;;8.52;5.25;;;;;;;;;;4960155;28;20035;-80
2021/01/23 01:22:43;;;;;;;13.77;4.63;;;;;;;;;;4968646;28;20034;-76
2021/01/23 01:25:10;;;;;;;11.30;4.68;;;;;;;;;;4966636;28;20030;-76
2021/01/23 01:27:36;;;;;;;6.18;3.58;;;;;;;;;;4969158;28;20419;-76
2021/01/23 01:30:03;;;;;;;5.30;2.78;;;;;;;;;;4966898;28;20101;-76
2021/01/23 01:32:29;;;;;;;10.27;5.15;;;;;;;;;;4966205;28;20085;-76
2021/01/23 01:34:55;;;;;;;8.95;5.20;;;;;;;;;;4965323;28;20035;-75
2021/01/23 01:37:21;;;;;;;11.23;5.53;;;;;;;;;;4957255;28;20027;-76
2021/01/23 01:39:47;;;;;;;7.47;4.00;;;;;;;;;;4953373;28;20046;-75
2021/01/23 01:42:13;;;;;;;9.38;4.05;;;;;;;;;;4951309;28;20058;-75
2021/01/23 01:44:39;;;;;;;8.55;5.20;;;;;;;;;;4957466;28;20036;-75
2021/01/23 01:47:05;;;;;;;9.32;4.30;;;;;;;;;;4959586;28;20284;-75
2021/01/23 01:49:32;;;;;;;11.70;3.90;;;;;;;;;;4964054;28;20026;-76
2021/01/23 01:51:58;;;;;;;6.88;3.90;;;;;;;;;;4978192;28;20507;-75
2021/01/23 01:54:24;;;;;;;8.00;3.92;;;;;;;;;;4971893;28;20019;-75
2021/01/23 01:56:51;;;;;;;10.30;4.93;;;;;;;;;;4967958;28;20027;-75
2021/01/23 01:59:17;;;;;;;9.25;3.47;;;;;;;;;;4969616;28;20054;-76
2021/01/23 02:01:43;;;;;;;3.03;1.42;;;;;;;;;;4967307;28;20148;-76
2021/01/23 02:04:18;;;;;;;10.93;2.70;;;;;;;;;;4970649;28;20027;-76
2021/01/23 02:06:47;;;;;;;5.18;2.65;;;;;;;;;;4970457;28;20026;-76
2021/01/23 02:09:22;;;;;;;7.55;2.22;;;;;;;;;;4971060;28;20047;-75
2021/01/23 02:11:48;;;;;;;6.05;2.53;;;;;;;;;;4967662;28;20614;-75
2021/01/23 02:14:24;;;;;;;7.13;2.20;;;;;;;;;;4970241;28;20046;-76
2021/01/23 02:16:52;;;;;;;4.80;1.52;;;;;;;;;;4964352;28;20038;-76
2021/01/23 02:19:18;;;;;;;3.10;1.00;;;;;;;;;;4962840;28;20094;-75
2021/01/23 02:21:52;;;;;;;3.95;1.23;;;;;;;;;;4970274;28;20614;-76
2021/01/23 02:24:23;;;;;;;0.45;0.35;;;;;;;;;;4971231;28;20082;-76
2021/01/23 02:26:50;;;;;;;5.47;0.98;;;;;;;;;;4970459;28;20050;-74
2021/01/23 02:29:22;;;;;;;5.20;1.10;;;;;;;;;;4970413;28;20023;-75
2021/01/23 02:31:48;;;;;;;;;;;;;;;;;;4961845;28;20481;-74
2021/01/23 02:34:16;;;;;;;5.15;1.05;;;;;;;;;;4981817;28;19910;-75
2021/01/23 02:36:42;;;;;;;4.18;0.93;;;;;;;;;;4969914;28;20480;-75
2021/01/23 02:39:09;;;;;;;2.63;0.90;;;;;;;;;;4969902;28;20046;-74
2021/01/23 02:41:35;;;;;;;7.00;1.10;;;;;;;;;;4964226;28;20062;-75
2021/01/23 02:44:01;;;;;;;4.70;0.77;;;;;;;;;;4969181;28;20566;-75
2021/01/23 02:46:28;;;;;;;3.03;0.98;;;;;;;;;;4970776;28;20507;-75
2021/01/23 02:48:54;;;;;;;2.17;0.57;;;;;;;;;;4980167;28;20055;-76
2021/01/23 02:51:32;;;;;;;2.90;0.60;;;;;;;;;;4972066;28;20038;-76
2021/01/23 02:54:02;;;;;;;6.88;1.08;;;;;;;;;;4974052;28;20023;-74
2021/01/23 02:56:30;;;;;;;8.32;1.92;;;;;;;;;;4975503;28;20027;-75
2021/01/23 02:58:58;;;;;;;2.78;0.60;;;;;;;;;;4974859;28;20074;-74
2021/01/23 03:01:25;;;;;;;5.68;1.00;;;;;;;;;;4970165;28;20042;-74
2021/01/23 03:03:55;;;;;;;2.55;0.80;;;;;;;;;;4974978;28;20077;-75
2021/01/23 03:06:22;;;;;;;6.82;0.98;;;;;;;;;;4956925;28;20033;-75
2021/01/23 03:08:48;;;;;;;6.53;1.23;;;;;;;;;;4971503;28;20082;-75
2021/01/23 03:11:14;;;;;;;9.70;1.38;;;;;;;;;;4960960;28;20081;-74
2021/01/23 03:13:40;;;;;;;5.15;1.13;;;;;;;;;;4974300;28;20025;-75
2021/01/23 03:16:06;;;;;;;6.32;1.33;;;;;;;;;;4977567;28;20039;-74
2021/01/23 03:18:32;;;;;;;8.93;1.10;;;;;;;;;;4986890;28;20057;-75
2021/01/23 03:20:59;;;;;;;4.63;3.03;;;;;;;;;;4974463;28;20027;-75
2021/01/23 03:23:25;;;;;;;2.50;0.65;;;;;;;;;;4976342;28;20036;-77
2021/01/23 03:25:51;;;;;;;4.30;1.27;;;;;;;;;;4973708;28;20575;-75
2021/01/23 03:28:17;;;;;;;4.68;1.00;;;;;;;;;;4975347;28;20026;-75
2021/01/23 03:30:43;;;;;;;11.00;1.77;;;;;;;;;;4973374;28;20043;-76
2021/01/23 03:33:09;;;;;;;4.30;0.95;;;;;;;;;;4973841;28;20023;-75
2021/01/23 03:35:35;;;;;;;6.90;1.30;;;;;;;;;;4972695;28;20037;-74
2021/01/23 03:38:01;;;;;;;9.80;1.13;;;;;;;;;;4974645;28;20038;-75
2021/01/23 03:40:28;;;;;;;3.53;1.40;;;;;;;;;;4973106;28;20074;-75
2021/01/23 03:42:54;;;;;;;8.90;1.88;;;;;;;;;;4969808;28;20404;-75
2021/01/23 03:45:20;;;;;;;1.38;0.55;;;;;;;;;;4974443;28;20508;-75
2021/01/23 03:47:46;;;;;;;2.38;0.65;;;;;;;;;;4974631;28;20070;-75
2021/01/23 03:50:12;;;;;;;7.13;1.98;;;;;;;;;;4973075;28;20054;-75
2021/01/23 03:52:38;;;;;;;13.73;1.60;;;;;;;;;;4974253;28;20031;-75
2021/01/23 03:55:08;;;;;;;7.47;1.35;;;;;;;;;;4963951;28;20027;-75
2021/01/23 03:57:34;;;;;;;10.63;1.63;;;;;;;;;;4968156;28;20093;-75
2021/01/23 04:00:00;;;;;;;4.80;1.65;;;;;;;;;;4962719;28;20077;-76
2021/01/23 04:02:26;;;;;;;5.38;1.67;;;;;;;;;;4970705;28;20513;-75
2021/01/23 04:04:52;;;;;;;3.28;0.73;;;;;;;;;;4971410;28;20606;-75
2021/01/23 04:07:18;;;;;;;6.00;1.30;;;;;;;;;;4974275;28;20042;-75
2021/01/23 04:09:46;;;;;;;3.58;1.10;;;;;;;;;;4969308;28;20019;-75
2021/01/23 04:12:12;;;;;;;6.78;1.20;;;;;;;;;;4972032;28;20026;-76
2021/01/23 04:14:38;;;;;;;7.50;1.90;;;;;;;;;;4969826;28;20054;-75
2021/01/23 04:17:04;;;;;;;5.05;1.08;;;;;;;;;;4969947;28;20065;-76
2021/01/23 04:19:30;;;;;;;5.70;1.35;;;;;;;;;;4973909;28;20058;-75
2021/01/23 04:21:56;;;;;;;6.70;1.52;;;;;;;;;;4970799;28;20037;-74
2021/01/23 04:24:22;;;;;;;10.40;1.75;;;;;;;;;;4965728;28;20114;-75
2021/01/23 04:26:48;;;;;;;4.35;0.98;;;;;;;;;;4972484;28;20027;-75
2021/01/23 04:29:14;;;;;;;8.52;1.52;;;;;;;;;;4969695;28;20031;-75
2021/01/23 04:31:40;;;;;;;10.40;2.00;;;;;;;;;;4980754;28;20050;-75
2021/01/23 04:34:06;;;;;;;6.65;2.30;;;;;;;;;;4968453;28;20105;-75
2021/01/23 04:36:33;;;;;;;6.15;1.55;;;;;;;;;;4972457;28;20023;-75
2021/01/23 04:38:59;;;;;;;9.52;1.70;;;;;;;;;;4975094;28;20038;-75
2021/01/23 04:41:29;;;;;;;7.95;1.60;;;;;;;;;;4970758;28;20029;-75
2021/01/23 04:43:55;;;;;;;7.97;1.77;;;;;;;;;;4973077;28;20576;-75
2021/01/23 04:46:22;;;;;;;6.05;1.85;;;;;;;;;;4969488;28;20019;-74
2021/01/23 04:48:48;;;;;;;4.53;1.33;;;;;;;;;;4973476;28;20089;-75
2021/01/23 04:51:14;;;;;;;7.63;2.75;;;;;;;;;;4969258;28;20038;-75
2021/01/23 04:53:40;;;;;;;6.47;1.08;;;;;;;;;;4962377;28;20027;-75
2021/01/23 04:56:07;;;;;;;5.85;1.30;;;;;;;;;;4958320;28;20030;-75
2021/01/23 04:58:33;;;;;;;9.13;2.00;;;;;;;;;;4971556;28;20054;-75
2021/01/23 05:00:59;;;;;;;13.48;1.88;;;;;;;;;;4971029;28;20535;-76
2021/01/23 05:03:25;;;;;;;6.57;1.73;;;;;;;;;;4973538;28;20027;-75
2021/01/23 05:06:07;;;;;;;10.73;1.50;;;;;;;;;;4971640;28;20053;-75
2021/01/23 05:08:37;;;;;;;7.55;1.95;;;;;;;;;;4973084;28;20447;-75
2021/01/23 05:11:03;;;;;;;7.55;1.77;;;;;;;;;;4970486;28;20026;-75
2021/01/23 05:13:29;;;;;;;8.23;2.15;;;;;;;;;;4973527;28;20015;-75
2021/01/23 05:15:55;;;;;;;15.45;2.50;;;;;;;;;;4971267;28;20035;-75
2021/01/23 05:18:21;;;;;;;12.50;1.75;;;;;;;;;;4971510;28;20052;-75
2021/01/23 05:20:47;;;;;;;7.13;1.98;;;;;;;;;;4970047;28;20033;-76
2021/01/23 05:23:14;;;;;;;8.50;2.80;;;;;;;;;;4973376;28;20027;-75
2021/01/23 05:25:41;;;;;;;11.65;1.88;;;;;;;;;;4972528;28;20058;-75
2021/01/23 05:28:09;;;;;;;7.88;2.17;;;;;;;;;;4972689;28;20088;-76
2021/01/23 05:30:39;;;;;;;10.57;2.42;;;;;;;;;;4969609;28;20038;-75
2021/01/23 05:33:07;;;;;;;7.88;1.60;;;;;;;;;;4971428;28;20030;-77
2021/01/23 05:35:33;;;;;;;7.75;2.45;;;;;;;;;;4971653;28;20023;-75
2021/01/23 05:37:59;;;;;;;3.83;1.35;;;;;;;;;;4970818;28;20031;-75
2021/01/23 05:40:31;;;;;;;16.25;2.75;;;;;;;;;;4971018;28;20101;-75
2021/01/23 05:42:57;;;;;;;12.23;2.28;;;;;;;;;;4972849;28;20063;-76
2021/01/23 05:45:23;;;;;;;10.07;2.55;;;;;;;;;;4972938;28;20039;-75
2021/01/23 05:47:49;;;;;;;20.45;3.33;;;;;;;;;;4968041;28;20031;-75
2021/01/23 05:50:15;;;;;;;11.77;2.78;;;;;;;;;;4980128;28;20035;-75
2021/01/23 05:52:41;;;;;;;7.72;2.10;;;;;;;;;;4970516;28;20035;-75
2021/01/23 05:55:08;;;;;;;7.18;2.03;;;;;;;;;;4968739;28;20097;-74
2021/01/23 05:57:34;;;;;;;5.00;1.98;;;;;;;;;;4966104;28;20023;-74
2021/01/23 06:00:01;;;;;;;13.18;4.32;;;;;;;;;;4970372;28;20126;-75
2021/01/23 06:02:27;;;;;;;13.85;3.25;;;;;;;;;;4969120;28;20172;-74
2021/01/23 06:04:54;;;;;;;10.95;2.70;;;;;;;;;;4971699;28;20496;-75
2021/01/23 06:07:38;;;;;;;12.55;3.60;;;;;;;;;;4970916;28;20026;-75
2021/01/23 06:10:04;;;;;;;13.85;3.25;;;;;;;;;;4969199;28;20031;-75
2021/01/23 06:12:30;;;;;;;4.97;1.83;;;;;;;;;;4968371;28;20109;-75
2021/01/23 06:14:56;;;;;;;11.63;3.38;;;;;;;;;;4969225;28;20034;-75
2021/01/23 06:17:41;;;;;;;10.27;3.10;;;;;;;;;;4972112;28;20041;-74
2021/01/23 06:20:07;;;;;;;13.57;3.40;;;;;;;;;;4969647;28;20520;-75
2021/01/23 06:22:52;;;;;;;6.20;3.38;;;;;;;;;;4969779;28;20019;-75
2021/01/23 06:25:18;;;;;;;10.30;3.05;;;;;;;;;;4966961;28;20038;-75
2021/01/23 06:27:48;;;;;;;5.05;2.85;;;;;;;;;;4971743;28;20023;-75
2021/01/23 06:30:26;;;;;;;8.80;3.90;;;;;;;;;;4965865;28;20035;-76
2021/01/23 06:32:52;;;;;;;9.52;2.92;;;;;;;;;;4962901;28;20023;-75
2021/01/23 06:35:18;;;;;;;11.52;3.33;;;;;;;;;;4971484;28;20027;-75
2021/01/23 06:37:44;;;;;;;10.95;3.17;;;;;;;;;;4970190;28;20480;-75
2021/01/23 06:40:11;;;;;;;6.18;1.95;;;;;;;;;;4968548;28;20086;-77
2021/01/23 06:42:47;;;;;;;7.00;2.75;;;;;;;;;;4970593;28;20038;-74
2021/01/23 06:45:18;;;;;;;16.98;3.40;;;;;;;;;;4969622;28;20027;-75
2021/01/23 06:47:45;;;;;;;6.90;3.22;;;;;;;;;;4970940;28;20035;-76
2021/01/23 06:50:12;;;;;;;10.52;3.05;;;;;;;;;;4976371;28;20031;-74
2021/01/23 06:52:45;;;;;;;14.18;5.55;;;;;;;;;;4957828;28;20043;-74
2021/01/23 06:55:11;;;;;;;9.15;3.22;;;;;;;;;;4964053;28;20516;-75
2021/01/23 06:57:43;;;;;;;10.05;3.20;;;;;;;;;;4965159;28;20027;-75
2021/01/23 07:00:09;;;;;;;13.13;3.40;;;;;;;;;;4959153;28;20051;-74
2021/01/23 07:02:35;;;;;;;12.38;3.50;;;;;;;;;;4966818;28;20138;-75
2021/01/23 07:05:06;;;;;;;17.27;4.32;;;;;;;;;;4965888;28;20552;-75
2021/01/23 07:07:36;;;;;;;13.70;4.13;;;;;;;;;;4972575;28;20062;-75
2021/01/23 07:10:05;;;;;;;15.82;4.43;;;;;;;;;;4973859;28;20035;-76
2021/01/23 07:12:35;;;;;;;9.13;3.92;;;;;;;;;;4975388;28;20022;-75
2021/01/23 07:15:06;;;;;;;14.90;4.38;;;;;;;;;;4975095;28;20030;-75
2021/01/23 07:17:36;;;;;;;16.63;4.78;;;;;;;;;;4995003;28;20030;-75
2021/01/23 07:20:03;;;;;;;10.73;4.18;;;;;;;;;;4975726;28;20018;-78
2021/01/23 07:22:30;;;;;;;11.77;3.90;;;;;;;;;;4978593;28;20122;-75
2021/01/23 07:24:56;;;;;;;15.25;4.38;;;;;;;;;;4978868;28;20484;-75
2021/01/23 07:27:24;;;;;;;11.60;3.92;;;;;;;;;;4978317;28;20030;-75
2021/01/23 07:29:51;;;;;;;10.45;3.38;;;;;;;;;;4976782;28;20042;-75
2021/01/23 07:32:17;;;;;;;8.63;3.72;;;;;;;;;;4980292;28;20027;-74
2021/01/23 07:34:53;;;;;;;13.48;3.83;;;;;;;;;;4970840;28;20019;-75
2021/01/23 07:37:36;;;;;;;12.60;3.88;;;;;;;;;;4971540;28;20030;-74
2021/01/23 07:40:03;;;;;;;12.35;4.15;;;;;;;;;;4972752;28;20053;-75
2021/01/23 07:42:29;;;;;;;14.38;4.38;;;;;;;;;;4977514;28;20066;-74
2021/01/23 07:44:55;;;;;;;10.50;3.40;;;;;;;;;;4974003;28;20019;-74
2021/01/23 07:47:24;;;;;;;11.32;2.70;;;;;;;;;;4965015;28;20103;-73
2021/01/23 07:49:50;;;;;;;14.15;3.55;;;;;;;;;;4967397;28;20055;-74
2021/01/23 07:52:16;;;;;;;8.63;3.42;;;;;;;;;;4971634;28;20109;-74
2021/01/23 07:54:52;;;;;;;12.65;4.80;;;;;;;;;;4960869;28;20023;-74
2021/01/23 07:57:18;;;;;;;12.93;4.75;;;;;;;;;;4972899;28;20039;-74
2021/01/23 07:59:45;;;;;;;19.98;5.25;;;;;;;;;;4967499;28;20038;-74
2021/01/23 08:02:11;;;;;;;10.32;4.47;;;;;;;;;;4972754;28;20050;-74
2021/01/23 08:04:38;;;;;;;12.80;3.88;;;;;;;;;;4969609;28;20110;-74
2021/01/23 08:07:24;;;;;;;15.73;4.40;;;;;;;;;;4973452;28;20023;-75
2021/01/23 08:10:09;;;;;;;15.80;4.82;;;;;;;;;;4962287;28;20046;-75
2021/01/23 08:12:36;;;;;;;14.52;4.60;;;;;;;;;;4969704;28;20032;-74
2021/01/23 08:15:02;;;;;;;16.88;4.82;;;;;;;;;;4973072;28;20552;-75
2021/01/23 08:17:44;;;;;;;16.10;4.13;;;;;;;;;;4972778;28;20030;-75
2021/01/23 08:20:12;;;;;;;11.00;4.82;;;;;;;;;;4970733;28;20047;-76
2021/01/23 08:22:57;;;;;;;15.75;4.88;;;;;;;;;;4973420;28;20042;-75
2021/01/23 08:25:24;;;;;;;14.98;5.55;;;;;;;;;;4974149;28;20026;-75
2021/01/23 08:27:50;;;;;;;10.63;4.85;;;;;;;;;;4972969;28;20034;-75
2021/01/23 08:30:16;;;;;;;18.25;5.13;;;;;;;;;;4970350;28;20023;-81
2021/01/23 08:32:42;;;;;;;18.35;6.07;;;;;;;;;;4973600;28;20031;-75
2021/01/23 08:35:09;;;;;;;16.05;5.38;;;;;;;;;;4966051;28;20046;-75
2021/01/23 08:37:35;;;;;;;15.50;5.65;;;;;;;;;;4968566;28;20030;-75
2021/01/23 08:40:01;;;;;;;13.70;6.50;;;;;;;;;;4973350;28;20015;-78
2021/01/23 08:42:27;;;;;;;12.43;5.65;;;;;;;;;;4973070;28;20030;-75
2021/01/23 08:44:53;;;;;;;16.77;5.75;;;;;;;;;;4969026;28;20031;-75
2021/01/23 08:47:19;;;;;;;12.73;5.15;;;;;;;;;;4972291;28;20038;-75
2021/01/23 08:49:45;;;;;;;16.02;6.32;;;;;;;;;;4973088;28;20023;-75
2021/01/23 08:52:11;;;;;;;14.30;6.43;;;;;;;;;;4969096;28;20023;-75
2021/01/23 08:54:37;;;;;;;14.95;5.30;;;;;;;;;;4972153;28;20113;-75
2021/01/23 08:57:03;;;;;;;15.38;5.88;;;;;;;;;;4972138;28;20031;-74
2021/01/23 08:59:29;;;;;;;15.25;5.78;;;;;;;;;;4972973;28;20058;-74
2021/01/23 09:01:55;;;;;;;17.92;5.95;;;;;;;;;;4969278;28;20082;-74
2021/01/23 09:04:21;;;;;;;11.25;5.47;;;;;;;;;;4980054;28;20035;-74
2021/01/23 09:06:47;;;;;;;12.23;5.10;;;;;;;;;;4973357;28;20026;-74
2021/01/23 09:09:13;;;;;;;13.20;5.57;;;;;;;;;;4972929;28;20026;-74
2021/01/23 09:11:39;;;;;;;13.95;5.85;;;;;;;;;;4969947;28;20034;-74
2021/01/23 09:14:06;;;;;;;12.43;5.40;;;;;;;;;;4967529;28;21419;-74
2021/01/23 09:16:32;;;;;;;15.52;5.28;;;;;;;;;;4969797;28;20070;-74
2021/01/23 09:18:59;;;;;;;13.15;4.85;;;;;;;;;;4962812;28;20035;-74
2021/01/23 09:21:25;;;;;;;15.40;5.43;;;;;;;;;;4971473;28;20155;-74
2021/01/23 09:23:51;;;;;;;16.65;6.13;;;;;;;;;;4973352;28;20039;-74
2021/01/23 09:26:17;;;;;;;12.13;5.25;;;;;;;;;;4972659;28;20027;-74
2021/01/23 09:28:43;;;;;;;10.88;5.03;;;;;;;;;;4969164;28;20046;-74
2021/01/23 09:31:09;;;;;;;16.38;5.70;;;;;;;;;;4969424;28;20184;-74
2021/01/23 09:33:35;;;;;;;17.45;6.30;;;;;;;;;;4970691;28;20019;-74
2021/01/23 09:36:02;;;;;;;13.45;5.80;;;;;;;;;;4971370;28;20031;-74
2021/01/23 09:38:28;;;;;;;15.77;5.53;;;;;;;;;;4968894;28;20027;-74
2021/01/23 09:40:54;;;;;;;9.10;5.15;;;;;;;;;;4971607;28;20034;-74
2021/01/23 09:43:20;;;;;;;13.52;6.07;;;;;;;;;;4975914;28;20121;-74
2021/01/23 09:45:46;;;;;;;13.57;6.00;;;;;;;;;;4978112;28;20077;-74
2021/01/23 09:48:12;;;;;;;14.05;5.88;;;;;;;;;;4978982;28;20113;-75
2021/01/23 09:50:38;;;;;;;13.68;5.45;;;;;;;;;;4978781;28;20041;-74
2021/01/23 09:53:04;;;;;;;12.38;5.97;;;;;;;;;;4974125;28;20034;-75
2021/01/23 09:55:31;;;;;;;18.05;6.88;;;;;;;;;;4978696;28;20018;-74
2021/01/23 09:57:57;;;;;;;15.98;6.07;;;;;;;;;;4970320;28;20039;-74
2021/01/23 10:00:23;;;;;;;13.13;5.95;;;;;;;;;;4965830;28;20134;-75
2021/01/23 10:02:49;;;;;;;15.75;6.07;;;;;;;;;;4966923;28;20043;-75
2021/01/23 10:05:15;;;;;;;16.55;6.35;;;;;;;;;;4965835;28;20050;-75
2021/01/23 10:07:41;;;;;;;14.55;5.60;;;;;;;;;;4968563;28;20034;-75
2021/01/23 10:10:09;;;;;;;13.43;5.50;;;;;;;;;;4963202;28;20031;-78
2021/01/23 10:12:35;;;;;;;15.93;5.18;;;;;;;;;;4970087;28;20033;-74
2021/01/23 10:15:01;;;;;;;10.07;3.60;;;;;;;;;;4982336;28;20027;-75
2021/01/23 10:17:27;;;;;;;11.60;5.40;;;;;;;;;;4970616;28;20022;-74
2021/01/23 10:19:53;;;;;;;12.65;4.88;;;;;;;;;;4964956;28;20208;-74
2021/01/23 10:22:19;;;;;;;14.13;6.72;;;;;;;;;;4972841;28;20591;-75
2021/01/23 10:24:46;;;;;;;15.95;5.90;;;;;;;;;;4969061;28;20528;-74
2021/01/23 10:27:12;;;;;;;17.60;5.90;;;;;;;;;;4968661;28;20038;-74
2021/01/23 10:29:38;;;;;;;12.27;5.28;;;;;;;;;;4963273;28;20031;-75
2021/01/23 10:32:04;;;;;;;15.50;6.50;;;;;;;;;;4980742;28;20025;-75
2021/01/23 10:34:30;;;;;;;13.88;5.68;;;;;;;;;;4968566;28;20097;-75
2021/01/23 10:36:56;;;;;;;13.55;5.72;;;;;;;;;;4970423;28;20118;-78
2021/01/23 10:39:23;;;;;;;14.65;5.45;;;;;;;;;;4968167;28;20026;-75
2021/01/23 10:41:49;;;;;;;11.45;5.15;;;;;;;;;;4964976;28;20077;-74
2021/01/23 10:44:15;;;;;;;6.47;3.17;;;;;;;;;;4971873;28;20034;-73
2021/01/23 10:46:41;;;;;;;12.18;5.07;;;;;;;;;;4969840;28;20563;-74
2021/01/23 10:49:07;;;;;;;9.75;5.03;;;;;;;;;;4959168;28;20173;-73
2021/01/23 10:51:33;;;;;;;24.25;5.20;;;;;;;;;;4967652;28;20092;-74
2021/01/23 10:53:59;;;;;;;13.18;4.43;;;;;;;;;;4969850;28;20014;-74
2021/01/23 10:56:27;;;;;;;13.85;5.15;;;;;;;;;;4968269;28;20595;-74
2021/01/23 10:58:54;;;;;;;15.82;5.07;;;;;;;;;;4970950;28;20515;-74
2021/01/23 11:01:20;;;;;;;13.90;5.72;;;;;;;;;;4968280;28;20071;-75
2021/01/23 11:03:46;;;;;;;14.10;4.95;;;;;;;;;;4976431;28;20049;-75
2021/01/23 11:06:12;;;;;;;14.65;5.40;;;;;;;;;;4969261;28;20109;-74
2021/01/23 11:08:38;;;;;;;14.95;4.82;;;;;;;;;;4969030;28;20041;-75
2021/01/23 11:11:04;;;;;;;12.23;5.20;;;;;;;;;;4969323;28;20035;-74
2021/01/23 11:13:30;;;;;;;20.40;4.97;;;;;;;;;;4973135;28;20074;-75
2021/01/23 11:15:56;;;;;;;10.55;5.60;;;;;;;;;;4972988;28;20030;-77
2021/01/23 11:18:22;;;;;;;10.93;4.38;;;;;;;;;;4972651;28;20046;-74
2021/01/23 11:20:51;;;;;;;16.98;5.20;;;;;;;;;;4974021;28;20031;-75
2021/01/23 11:23:17;;;;;;;10.23;5.00;;;;;;;;;;4973362;28;20356;-74
2021/01/23 11:25:43;;;;;;;8.52;4.97;;;;;;;;;;4973793;28;20015;-76
2021/01/23 11:28:09;;;;;;;9.02;5.38;;;;;;;;;;4988693;28;20037;-75
2021/01/23 11:30:35;;;;;;;12.13;5.45;;;;;;;;;;4980824;28;20019;-75
2021/01/23 11:33:01;;;;;;;12.35;5.22;;;;;;;;;;4975482;28;20097;-76
2021/01/23 11:35:27;;;;;;;12.75;5.45;;;;;;;;;;4972249;28;20019;-76
2021/01/23 11:37:54;;;;;;;8.93;5.03;;;;;;;;;;4963505;28;20443;-76
2021/01/23 11:40:20;;;;;;;14.73;6.65;;;;;;;;;;4971675;28;20033;-76
2021/01/23 11:42:46;;;;;;;14.63;5.47;;;;;;;;;;4969785;28;20031;-76
2021/01/23 11:45:12;;;;;;;13.82;5.05;;;;;;;;;;4969063;28;20050;-76
2021/01/23 11:47:38;;;;;;;12.38;6.28;;;;;;;;;;4974388;28;20027;-76
2021/01/23 11:50:04;;;;;;;17.10;7.70;;;;;;;;;;4978393;28;20637;-76
2021/01/23 11:52:30;;;;;;;13.65;6.30;;;;;;;;;;4965765;28;20139;-75
2021/01/23 11:54:56;;;;;;;18.17;6.28;;;;;;;;;;4977958;28;20031;-76
2021/01/23 11:57:22;;;;;;;15.52;5.10;;;;;;;;;;4972097;28;20023;-75
2021/01/23 11:59:48;;;;;;;14.43;6.10;;;;;;;;;;4972960;28;20039;-76
2021/01/23 12:02:14;;;;;;;17.88;5.47;;;;;;;;;;4969724;28;20562;-75
2021/01/23 12:04:41;;;;;;;10.25;4.82;;;;;;;;;;4973809;28;20035;-75
2021/01/23 12:07:07;;;;;;;16.15;6.00;;;;;;;;;;4973826;28;20030;-76
2021/01/23 12:09:33;;;;;;;11.85;7.40;;;;;;;;;;4972531;28;20031;-74
2021/01/23 12:11:59;;;;;;;15.52;6.15;;;;;;;;;;4970879;28;20035;-75
2021/01/23 12:14:25;;;;;;;16.77;6.45;;;;;;;;;;4972203;28;20029;-75
2021/01/23 12:16:51;;;;;;;14.90;6.45;;;;;;;;;;4974201;28;20047;-75
2021/01/23 12:19:17;;;;;;;12.27;6.90;;;;;;;;;;4973707;28;20032;-76
2021/01/23 12:21:43;;;;;;;11.43;5.72;;;;;;;;;;4970239;28;20194;-75
2021/01/23 12:24:09;;;;;;;10.52;5.78;;;;;;;;;;4973102;28;20026;-76
2021/01/23 12:26:36;;;;;;;16.25;6.22;;;;;;;;;;4967241;28;20082;-75
2021/01/23 12:29:02;;;;;;;13.95;6.82;;;;;;;;;;4965100;28;20170;-75
2021/01/23 12:31:29;;;;;;;16.90;6.68;;;;;;;;;;4970925;28;20049;-75
2021/01/23 12:33:55;;;;;;;13.88;6.72;;;;;;;;;;4971916;28;21520;-75
2021/01/23 12:36:21;;;;;;;14.80;6.82;;;;;;;;;;4973349;28;20023;-75
2021/01/23 12:38:47;;;;;;;13.35;5.72;;;;;;;;;;4969333;28;20115;-75
2021/01/23 12:41:13;;;;;;;11.93;6.55;;;;;;;;;;4968429;28;20031;-75
2021/01/23 12:43:39;;;;;;;19.05;6.78;;;;;;;;;;4974109;28;20019;-75
2021/01/23 12:46:05;;;;;;;13.45;6.65;;;;;;;;;;4974772;28;20031;-75
2021/01/23 12:48:31;;;;;;;15.35;6.18;;;;;;;;;;4985292;28;20029;-75
2021/01/23 12:50:57;;;;;;;13.18;5.70;;;;;;;;;;4972149;28;20023;-75
2021/01/23 12:53:23;;;;;;;13.38;6.05;;;;;;;;;;4972317;28;20023;-74
2021/01/23 12:55:50;;;;;;;11.93;6.43;;;;;;;;;;4970929;28;20014;-75
2021/01/23 12:58:18;;;;;;;17.85;6.07;;;;;;;;;;4970514;28;20310;-74
2021/01/23 13:00:45;;;;;;;12.55;5.90;;;;;;;;;;4956499;28;20035;-75
2021/01/23 13:03:11;;;;;;;15.68;6.55;;;;;;;;;;4964118;28;20070;-75
2021/01/23 13:05:37;;;;;;;17.27;6.07;;;;;;;;;;4985577;28;20121;-74
2021/01/23 13:08:03;;;;;;;15.68;6.78;;;;;;;;;;4971551;28;20496;-74
2021/01/23 13:10:29;;;;;;;19.27;7.38;;;;;;;;;;4969490;28;20151;-74
2021/01/23 13:12:55;;;;;;;17.85;6.75;;;;;;;;;;4963691;28;20050;-74
2021/01/23 13:15:21;;;;;;;16.10;6.50;;;;;;;;;;4962256;28;20025;-74
2021/01/23 13:17:47;;;;;;;15.50;7.28;;;;;;;;;;4970271;28;20038;-74
2021/01/23 13:20:13;;;;;;;15.05;6.00;;;;;;;;;;4964313;28;20134;-73
2021/01/23 13:22:40;;;;;;;12.90;6.68;;;;;;;;;;4969773;28;20054;-77
2021/01/23 13:25:09;;;;;;;19.08;8.32;;;;;;;;;;4965488;28;20031;-74
2021/01/23 13:27:36;;;;;;;17.17;8.55;;;;;;;;;;4984385;28;20109;-74
2021/01/23 13:30:03;;;;;;;15.50;9.25;;;;;;;;;;4962531;28;20085;-74
2021/01/23 13:32:29;;;;;;;18.38;9.15;;;;;;;;;;4962651;28;20034;-74
2021/01/23 13:34:55;;;;;;;27.92;10.25;;;;;;;;;;4968095;28;20053;-74
2021/01/23 13:37:22;;;;;;;17.33;10.68;;;;;;;;;;4971088;28;20027;-74
2021/01/23 13:39:48;;;;;;;20.02;9.45;;;;;;;;;;4971810;28;20027;-74
2021/01/23 13:42:14;;;;;;;18.95;9.60;;;;;;;;;;4967887;28;20037;-74
2021/01/23 13:44:40;;;;;;;23.08;10.45;;;;;;;;;;4970140;28;20085;-74
2021/01/23 13:47:06;;;;;;;22.25;10.63;;;;;;;;;;4967534;28;20030;-74
2021/01/23 13:49:32;;;;;;;17.70;9.63;;;;;;;;;;4970741;28;20039;-74
2021/01/23 13:51:58;;;;;;;21.10;10.45;;;;;;;;;;4966513;28;20023;-73
2021/01/23 13:54:24;;;;;;;22.27;11.07;;;;;;;;;;4960562;28;20031;-74
2021/01/23 13:56:50;;;;;;;22.15;9.98;;;;;;;;;;4971256;28;20045;-74
2021/01/23 13:59:16;;;;;;;22.05;11.38;;;;;;;;;;4977142;28;20543;-73
2021/01/23 14:01:43;;;;;;;15.05;9.38;;;;;;;;;;4961580;28;20588;-74
2021/01/23 14:04:09;;;;;;;17.60;8.98;;;;;;;;;;4962079;28;20035;-73
2021/01/23 14:06:35;;;;;;;22.48;12.95;;;;;;;;;;4966868;28;20030;-73
2021/01/23 14:09:01;;;;;;;19.73;11.18;;;;;;;;;;4965531;28;20078;-74
2021/01/23 14:11:27;;;;;;;15.50;9.30;;;;;;;;;;4968728;28;20108;-74
2021/01/23 14:13:53;;;;;;;15.48;10.20;;;;;;;;;;4967986;28;20023;-74
2021/01/23 14:16:20;;;;;;;21.17;10.73;;;;;;;;;;4970901;28;20027;-74
2021/01/23 14:18:46;;;;;;;18.90;9.90;;;;;;;;;;4961711;28;20178;-74
2021/01/23 14:21:12;;;;;;;17.27;10.68;;;;;;;;;;4967908;28;20030;-74
2021/01/23 14:23:38;;;;;;;17.20;10.25;;;;;;;;;;4970793;28;20034;-74
2021/01/23 14:26:05;;;;;;;19.05;9.98;;;;;;;;;;4970068;28;20085;-74
2021/01/23 14:28:31;;;;;;;19.85;10.85;;;;;;;;;;4955326;28;20031;-74
2021/01/23 14:30:57;;;;;;;22.67;10.48;;;;;;;;;;4965137;28;20076;-75
2021/01/23 14:33:23;;;;;;;15.68;9.82;;;;;;;;;;4968540;28;20110;-76